Terminal Aerodrome Forecast
Issued by NWS

Home | Current Version | Previous Version | Text Only | Print | Product List | Glossary On
Versions: 1 2 3 4 5 6 7 8 9 10 11 12 13 14
021
FTUS45 KFGZ 270825 AAA
TAFPGA
TAF AMD
KPGA 270825Z 2708/2806 19008KT P6SM OVC070
     FM271800 23012G22KT P6SM SCT060 SCT200
     FM280000 26011KT P6SM BKN060 OVC200
      TEMPO 2802/2806 5SM -RA OVC040=

USA.gov is the U.S. government's official web portal to all federal, state and local government web resources and services.